Time;durP1;ratioP1;P1;durP2;ratioP2;P2;SDS_P1;SDS_P2;PMS_P1;PMS_P2;Temp;Humidity;BMP_temperature;BMP_pressure;BME280_temperature;BME280_humidity;BME280_pressure;Samples;Min_cycle;Max_cycle;Signal;HPM_P1;HPM_P2
2021/01/24 00:00:54;;;;;;;1.60;1.30;;;3.60;98.20;;;;;;4996172;28;20484;-76
2021/01/24 00:03:22;;;;;;;1.70;1.47;;;3.60;98.20;;;;;;5004513;28;20472;-76
2021/01/24 00:05:49;;;;;;;1.70;1.50;;;3.60;98.20;;;;;;5003917;28;20464;-76
2021/01/24 00:08:16;;;;;;;1.70;1.40;;;3.60;98.20;;;;;;4997890;28;20497;-76
2021/01/24 00:10:43;;;;;;;1.70;1.40;;;3.60;98.20;;;;;;4997646;28;20570;-76
2021/01/24 00:13:09;;;;;;;1.70;1.57;;;3.60;98.20;;;;;;5004510;28;20859;-76
2021/01/24 00:15:37;;;;;;;1.67;1.40;;;3.60;98.20;;;;;;5004010;28;20731;-76
2021/01/24 00:18:04;;;;;;;1.60;1.30;;;3.50;98.20;;;;;;5006488;28;21279;-77
2021/01/24 00:20:31;;;;;;;1.60;1.40;;;3.50;98.20;;;;;;5002410;28;20581;-76
2021/01/24 00:22:57;;;;;;;1.67;1.37;;;3.50;98.20;;;;;;5007872;28;20464;-77
2021/01/24 00:25:24;;;;;;;1.67;1.47;;;3.50;98.20;;;;;;5004759;28;20492;-77
2021/01/24 00:27:51;;;;;;;1.73;1.63;;;3.50;98.20;;;;;;5001408;28;20833;-77
2021/01/24 00:30:19;;;;;;;1.60;1.40;;;3.50;98.20;;;;;;5003379;28;20585;-77
2021/01/24 00:32:46;;;;;;;1.67;1.40;;;3.50;98.20;;;;;;5001944;28;20483;-76
2021/01/24 00:35:13;;;;;;;1.63;1.40;;;3.60;98.20;;;;;;5003549;28;20685;-77
2021/01/24 00:37:40;;;;;;;1.67;1.43;;;3.50;98.20;;;;;;5003936;28;20526;-76
2021/01/24 00:40:09;;;;;;;1.60;1.40;;;3.50;98.20;;;;;;5002957;28;20508;-76
2021/01/24 00:42:36;;;;;;;1.70;1.40;;;3.40;98.20;;;;;;4990611;28;20497;-76
2021/01/24 00:45:05;;;;;;;1.60;1.30;;;3.40;98.20;;;;;;5002636;28;20497;-76
2021/01/24 00:47:31;;;;;;;1.70;1.60;;;3.50;98.20;;;;;;5004053;28;20575;-77
2021/01/24 00:50:01;;;;;;;1.60;1.30;;;3.50;98.20;;;;;;5002271;28;20544;-77
2021/01/24 00:52:28;;;;;;;1.70;1.57;;;3.60;98.20;;;;;;5007927;28;20477;-77
2021/01/24 00:54:54;;;;;;;1.60;1.37;;;3.60;98.20;;;;;;5007907;28;21089;-77
2021/01/24 00:57:20;;;;;;;1.67;1.40;;;3.70;98.20;;;;;;5011176;28;20488;-77
2021/01/24 00:59:48;;;;;;;1.67;1.40;;;3.70;98.20;;;;;;4999318;28;20538;-77
2021/01/24 01:02:15;;;;;;;1.63;1.40;;;3.70;98.20;;;;;;5004916;28;20487;-77
2021/01/24 01:04:42;;;;;;;1.60;1.30;;;3.60;98.20;;;;;;5012862;28;20990;-77
2021/01/24 01:07:08;;;;;;;1.60;1.30;;;3.60;98.20;;;;;;5013881;28;20484;-77
2021/01/24 01:09:36;;;;;;;1.70;1.40;;;3.60;98.20;;;;;;5009492;28;20940;-77
2021/01/24 01:12:03;;;;;;;1.70;1.50;;;3.60;98.20;;;;;;4994578;28;20535;-78
2021/01/24 01:14:29;;;;;;;1.67;1.40;;;3.60;98.20;;;;;;5003405;28;21152;-78
2021/01/24 01:16:56;;;;;;;1.60;1.40;;;3.60;98.20;;;;;;5010911;28;20636;-78
2021/01/24 01:19:23;;;;;;;1.60;1.40;;;3.50;98.20;;;;;;5010865;28;20943;-77
2021/01/24 01:21:50;;;;;;;1.67;1.47;;;3.50;98.20;;;;;;5011043;28;20485;-77
2021/01/24 01:24:17;;;;;;;1.60;1.40;;;3.50;98.20;;;;;;5009738;28;20883;-78
2021/01/24 01:26:43;;;;;;;1.70;1.50;;;3.50;98.20;;;;;;5014214;28;20484;-77
2021/01/24 01:29:09;;;;;;;1.60;1.33;;;3.50;98.20;;;;;;5010051;28;20507;-77
2021/01/24 01:31:36;;;;;;;1.60;1.40;;;3.40;98.20;;;;;;5003868;28;20484;-77
2021/01/24 01:34:02;;;;;;;1.60;1.40;;;3.40;98.20;;;;;;5011249;28;20555;-77
2021/01/24 01:36:30;;;;;;;1.67;1.37;;;3.30;98.20;;;;;;5014369;28;20480;-77
2021/01/24 01:38:57;;;;;;;1.67;1.40;;;3.20;98.20;;;;;;5010390;28;20510;-77
2021/01/24 01:41:29;;;;;;;1.63;1.50;;;3.20;98.20;;;;;;5012299;28;20524;-77
2021/01/24 01:43:55;;;;;;;1.70;1.40;;;3.10;98.20;;;;;;5011754;28;20946;-77
2021/01/24 01:46:22;;;;;;;1.70;1.40;;;3.10;98.20;;;;;;5010564;28;20483;-77
2021/01/24 01:48:51;;;;;;;1.67;1.43;;;3.00;98.20;;;;;;5014684;28;20519;-77
2021/01/24 01:51:17;;;;;;;1.60;1.30;;;2.90;98.20;;;;;;5009097;28;20528;-79
2021/01/24 01:53:45;;;;;;;1.67;1.40;;;2.80;98.20;;;;;;5007584;28;20493;-78
2021/01/24 01:56:12;;;;;;;1.60;1.40;;;2.70;98.20;;;;;;5000508;28;20461;-78
2021/01/24 01:58:38;;;;;;;1.70;1.50;;;2.60;98.20;;;;;;5000855;28;20981;-79
2021/01/24 02:01:13;;;;;;;1.70;1.50;;;2.50;98.20;;;;;;5006680;28;21005;-78
2021/01/24 02:03:50;;;;;;;1.60;1.40;;;2.40;98.20;;;;;;5005690;28;20475;-80
2021/01/24 02:06:21;;;;;;;1.70;1.60;;;2.30;98.20;;;;;;5008023;28;20487;-79
2021/01/24 02:08:57;;;;;;;1.63;1.40;;;2.20;98.20;;;;;;5007736;28;20468;-79
2021/01/24 02:11:32;;;;;;;1.63;1.40;;;2.10;98.20;;;;;;5000133;28;20510;-79
2021/01/24 02:14:06;;;;;;;1.63;1.43;;;2.10;98.20;;;;;;5002372;28;20463;-79
2021/01/24 02:16:35;;;;;;;1.63;1.40;;;2.00;98.20;;;;;;5010912;28;21012;-79
2021/01/24 02:19:04;;;;;;;1.60;1.43;;;1.90;98.20;;;;;;5011049;28;20453;-79
2021/01/24 02:21:33;;;;;;;1.60;1.40;;;1.80;98.20;;;;;;5008491;28;20515;-79
2021/01/24 02:24:09;;;;;;;1.67;1.40;;;1.80;98.20;;;;;;5007704;28;20899;-79
2021/01/24 02:26:43;;;;;;;1.63;1.40;;;1.70;98.20;;;;;;5005676;28;20519;-78
2021/01/24 02:29:18;;;;;;;1.70;1.53;;;1.70;98.20;;;;;;5009702;28;20599;-78
2021/01/24 02:31:50;;;;;;;1.60;1.40;;;1.60;98.20;;;;;;5010095;28;21045;-78
2021/01/24 02:34:19;;;;;;;1.60;1.50;;;1.60;98.20;;;;;;5005390;28;20533;-78
2021/01/24 02:36:48;;;;;;;1.60;1.40;;;1.60;98.20;;;;;;5008405;28;20535;-78
2021/01/24 02:39:16;;;;;;;1.70;1.57;;;1.50;98.20;;;;;;5003291;28;20789;-78
2021/01/24 02:41:44;;;;;;;1.67;1.50;;;1.50;98.20;;;;;;5006325;28;20576;-78
2021/01/24 02:44:13;;;;;;;1.60;1.47;;;1.50;98.20;;;;;;5004019;28;20464;-78
2021/01/24 02:46:40;;;;;;;1.70;1.50;;;1.50;98.20;;;;;;5008530;28;20567;-78
2021/01/24 02:49:08;;;;;;;1.60;1.40;;;1.50;98.20;;;;;;5009489;28;20637;-78
2021/01/24 02:51:35;;;;;;;1.70;1.60;;;1.50;98.20;;;;;;5007853;28;20517;-78
2021/01/24 02:54:03;;;;;;;1.60;1.50;;;1.50;98.20;;;;;;5012722;28;20468;-78
2021/01/24 02:56:30;;;;;;;1.70;1.47;;;1.40;98.20;;;;;;5012995;28;20594;-77
2021/01/24 02:58:59;;;;;;;1.70;1.50;;;1.40;98.20;;;;;;5003489;28;20551;-77
2021/01/24 03:01:25;;;;;;;1.70;1.50;;;1.40;98.20;;;;;;5004419;28;20479;-77
2021/01/24 03:03:52;;;;;;;1.63;1.50;;;1.40;98.20;;;;;;5007035;28;20500;-77
2021/01/24 03:06:19;;;;;;;1.60;1.50;;;1.40;98.20;;;;;;5008990;28;20524;-77
2021/01/24 03:08:46;;;;;;;1.70;1.60;;;1.40;98.20;;;;;;5014762;28;20459;-77
2021/01/24 03:11:17;;;;;;;1.60;1.43;;;1.40;98.20;;;;;;5000343;28;20635;-76
2021/01/24 03:13:48;;;;;;;1.70;1.50;;;1.40;98.20;;;;;;5008314;28;20539;-76
2021/01/24 03:16:17;;;;;;;1.70;1.60;;;1.40;98.20;;;;;;5000132;28;20835;-76
2021/01/24 03:18:51;;;;;;;1.63;1.50;;;1.40;98.20;;;;;;5012680;28;20568;-76
2021/01/24 03:21:20;;;;;;;1.70;1.53;;;1.40;98.20;;;;;;5004861;28;20939;-76
2021/01/24 03:23:48;;;;;;;1.83;1.73;;;1.40;98.20;;;;;;5003150;28;20463;-77
2021/01/24 03:26:15;;;;;;;2.53;2.33;;;1.40;98.20;;;;;;5008760;28;20468;-77
2021/01/24 03:28:45;;;;;;;1.60;1.40;;;1.30;98.20;;;;;;5007995;28;20503;-77
2021/01/24 03:31:11;;;;;;;1.70;1.53;;;1.40;98.20;;;;;;5004856;28;20519;-77
2021/01/24 03:33:40;;;;;;;1.60;1.50;;;1.30;98.20;;;;;;5007132;28;20547;-77
2021/01/24 03:36:07;;;;;;;1.70;1.50;;;1.30;98.20;;;;;;5003522;28;20464;-78
2021/01/24 03:38:34;;;;;;;1.60;1.43;;;1.30;98.20;;;;;;4992073;28;20466;-77
2021/01/24 03:41:01;;;;;;;1.70;1.53;;;1.30;98.20;;;;;;5006760;28;20491;-78
2021/01/24 03:43:27;;;;;;;1.67;1.50;;;1.30;98.20;;;;;;5003327;28;20956;-78
2021/01/24 03:45:53;;;;;;;1.63;1.47;;;1.30;98.20;;;;;;5003239;28;21002;-78
2021/01/24 03:48:20;;;;;;;1.60;1.40;;;1.30;98.20;;;;;;5006929;28;20563;-78
2021/01/24 03:50:46;;;;;;;1.70;1.60;;;1.30;98.20;;;;;;5010953;28;20583;-78
2021/01/24 03:53:13;;;;;;;1.70;1.57;;;1.20;98.20;;;;;;4997748;28;20929;-79
2021/01/24 03:55:40;;;;;;;1.70;1.50;;;1.20;98.20;;;;;;5008764;28;20851;-78
2021/01/24 03:58:07;;;;;;;1.70;1.60;;;1.20;98.20;;;;;;5011020;28;20897;-80
2021/01/24 04:00:33;;;;;;;1.70;1.50;;;1.20;98.20;;;;;;5003284;28;20933;-80
2021/01/24 04:03:00;;;;;;;1.70;1.60;;;1.20;98.20;;;;;;5004976;28;20469;-81
2021/01/24 04:05:26;;;;;;;1.70;1.50;;;1.20;98.20;;;;;;5011593;28;20967;-82
2021/01/24 04:07:52;;;;;;;1.70;1.60;;;1.20;98.20;;;;;;5001531;28;20516;-84
2021/01/24 04:10:20;;;;;;;1.70;1.60;;;1.10;98.20;;;;;;5006658;28;20899;-82
2021/01/24 04:12:48;;;;;;;1.70;1.60;;;1.20;98.20;;;;;;5009708;28;20590;-82
2021/01/24 04:15:16;;;;;;;1.70;1.60;;;1.10;98.20;;;;;;5004092;28;20559;-83
2021/01/24 04:17:42;;;;;;;1.70;1.57;;;1.10;98.20;;;;;;5011152;28;20492;-84
2021/01/24 04:20:09;;;;;;;1.73;1.63;;;1.10;98.20;;;;;;5007805;28;21247;-83
2021/01/24 04:22:36;;;;;;;1.70;1.60;;;1.10;98.20;;;;;;5000432;28;20469;-84
2021/01/24 04:25:02;;;;;;;1.70;1.60;;;1.10;98.20;;;;;;5007960;28;20477;-85
2021/01/24 04:27:29;;;;;;;1.70;1.50;;;1.10;98.20;;;;;;5012682;28;20511;-82
2021/01/24 04:29:56;;;;;;;1.70;1.50;;;1.10;98.20;;;;;;5010159;28;20452;-84
2021/01/24 04:32:23;;;;;;;1.70;1.50;;;1.10;98.20;;;;;;5008619;28;20456;-85
2021/01/24 04:34:51;;;;;;;1.70;1.60;;;1.10;98.20;;;;;;5010814;28;20456;-84
2021/01/24 04:37:17;;;;;;;1.70;1.60;;;1.10;98.20;;;;;;4998518;28;20464;-86
2021/01/24 04:39:43;;;;;;;1.70;1.60;;;1.10;98.20;;;;;;5003932;28;20499;-85
2021/01/24 04:42:10;;;;;;;1.60;1.50;;;1.10;98.20;;;;;;5005841;28;21251;-84
2021/01/24 04:44:37;;;;;;;1.63;1.50;;;1.10;98.20;;;;;;5002823;28;20456;-83
2021/01/24 04:47:05;;;;;;;1.70;1.60;;;1.10;98.20;;;;;;5003628;28;20515;-85
2021/01/24 04:49:33;;;;;;;1.70;1.50;;;1.10;98.20;;;;;;5007307;28;20555;-83
2021/01/24 04:52:02;;;;;;;1.80;1.70;;;1.10;98.20;;;;;;5009194;28;20559;-83
2021/01/24 04:54:28;;;;;;;2.13;1.93;;;1.10;98.20;;;;;;5006096;28;20495;-83
2021/01/24 04:56:55;;;;;;;1.60;1.50;;;1.10;98.20;;;;;;5005826;28;20471;-84
2021/01/24 04:59:22;;;;;;;1.63;1.50;;;1.10;98.20;;;;;;5008065;28;20496;-83
2021/01/24 05:01:49;;;;;;;1.73;1.63;;;1.10;98.20;;;;;;5007048;28;20567;-83
2021/01/24 05:04:17;;;;;;;1.67;1.50;;;1.10;98.20;;;;;;5006161;28;20460;-83
2021/01/24 05:06:43;;;;;;;1.80;1.70;;;1.10;98.20;;;;;;5005173;28;20638;-83
2021/01/24 05:09:10;;;;;;;1.80;1.70;;;1.10;98.20;;;;;;4998962;28;20492;-83
2021/01/24 05:11:37;;;;;;;1.60;1.50;;;1.10;98.20;;;;;;4997682;28;20520;-83
2021/01/24 05:14:16;;;;;;;1.70;1.60;;;1.10;98.20;;;;;;5008127;28;20464;-83
2021/01/24 05:16:44;;;;;;;1.70;1.50;;;1.10;98.20;;;;;;5005563;28;20488;-82
2021/01/24 05:19:10;;;;;;;1.80;1.70;;;1.10;98.20;;;;;;5000787;28;20576;-82
2021/01/24 05:21:38;;;;;;;1.70;1.50;;;1.10;98.20;;;;;;5004390;28;20508;-81
2021/01/24 05:24:08;;;;;;;1.70;1.60;;;1.10;98.20;;;;;;5005123;28;20468;-81
2021/01/24 05:26:37;;;;;;;1.70;1.60;;;1.10;98.20;;;;;;5005638;28;20480;-82
2021/01/24 05:29:04;;;;;;;1.60;1.50;;;1.10;98.20;;;;;;4993508;28;20501;-81
2021/01/24 05:31:31;;;;;;;1.70;1.60;;;1.10;98.20;;;;;;4997458;28;20503;-81
2021/01/24 05:33:58;;;;;;;1.70;1.50;;;1.20;98.20;;;;;;5006675;28;20881;-81
2021/01/24 05:36:25;;;;;;;1.70;1.60;;;1.10;98.20;;;;;;5006264;28;20479;-81
2021/01/24 05:38:54;;;;;;;1.63;1.47;;;1.10;98.20;;;;;;4992262;28;20472;-81
2021/01/24 05:41:21;;;;;;;1.70;1.60;;;1.10;98.20;;;;;;5009519;28;20555;-81
2021/01/24 05:43:47;;;;;;;1.67;1.57;;;1.10;98.20;;;;;;5006599;28;20460;-82
2021/01/24 05:46:14;;;;;;;1.77;1.67;;;1.10;98.20;;;;;;5013713;28;20551;-81
2021/01/24 05:48:48;;;;;;;1.70;1.60;;;1.10;98.20;;;;;;5010081;28;20498;-82
2021/01/24 05:51:16;;;;;;;1.90;1.80;;;1.20;98.20;;;;;;5006276;28;20476;-81
2021/01/24 05:53:45;;;;;;;1.70;1.60;;;1.20;98.20;;;;;;4999624;28;20971;-79
2021/01/24 05:56:17;;;;;;;1.80;1.70;;;1.20;98.20;;;;;;5010417;28;20470;-80
2021/01/24 05:58:57;;;;;;;1.70;1.50;;;1.20;98.20;;;;;;5008774;28;20556;-80
2021/01/24 06:01:24;;;;;;;1.70;1.60;;;1.20;98.20;;;;;;5012876;28;20809;-80
2021/01/24 06:03:54;;;;;;;1.70;1.60;;;1.10;98.20;;;;;;5012013;28;20990;-80
2021/01/24 06:06:21;;;;;;;1.70;1.60;;;1.10;98.20;;;;;;5011550;28;20500;-80
2021/01/24 06:08:48;;;;;;;1.70;1.60;;;1.10;98.20;;;;;;5013990;28;20499;-80
2021/01/24 06:11:17;;;;;;;1.60;1.50;;;1.20;98.20;;;;;;5010416;28;20547;-79
2021/01/24 06:13:47;;;;;;;1.67;1.50;;;1.10;98.20;;;;;;5007230;28;20479;-78
2021/01/24 06:16:21;;;;;;;1.70;1.50;;;1.10;98.20;;;;;;4998268;28;20970;-79
2021/01/24 06:18:55;;;;;;;1.73;1.63;;;1.10;98.20;;;;;;5006771;28;20523;-80
2021/01/24 06:21:28;;;;;;;1.80;1.70;;;1.10;98.20;;;;;;5008854;28;20486;-79
2021/01/24 06:24:00;;;;;;;1.70;1.60;;;1.20;98.20;;;;;;5010289;28;20464;-79
2021/01/24 06:26:29;;;;;;;2.63;2.43;;;1.20;98.20;;;;;;4998905;28;20503;-78
2021/01/24 06:29:02;;;;;;;1.63;1.50;;;1.20;98.20;;;;;;5007061;28;20472;-79
2021/01/24 06:31:28;;;;;;;1.67;1.50;;;1.20;98.20;;;;;;5009954;28;20541;-78
2021/01/24 06:34:04;;;;;;;1.67;1.50;;;1.20;98.20;;;;;;5007430;28;20468;-78
2021/01/24 06:36:30;;;;;;;1.60;1.50;;;1.20;98.20;;;;;;5008119;28;20519;-78
2021/01/24 06:38:57;;;;;;;1.67;1.43;;;1.20;98.20;;;;;;5008160;28;20964;-79
2021/01/24 06:41:43;;;;;;;1.63;1.50;;;1.20;98.20;;;;;;5007139;28;20566;-78
2021/01/24 06:44:37;;;;;;;1.70;1.60;;;1.20;98.20;;;;;;5000415;28;20499;-78
2021/01/24 06:47:05;;;;;;;1.60;1.50;;;1.20;98.20;;;;;;5007441;28;20524;-77
2021/01/24 06:49:42;;;;;;;1.70;1.60;;;1.20;98.20;;;;;;5008534;28;21098;-77
2021/01/24 06:52:17;;;;;;;1.67;1.40;;;1.20;98.20;;;;;;5004578;28;20523;-77
2021/01/24 06:54:43;;;;;;;1.70;1.53;;;1.20;98.20;;;;;;5009012;28;20543;-77
2021/01/24 06:57:11;;;;;;;1.70;1.60;;;1.20;98.20;;;;;;4998639;28;20497;-77
2021/01/24 06:59:38;;;;;;;4.23;3.57;;;1.20;98.20;;;;;;5005949;28;20971;-77
2021/01/24 07:02:36;;;;;;;1.70;1.50;;;1.20;98.20;;;;;;5006786;28;20534;-77
2021/01/24 07:05:12;;;;;;;1.70;1.60;;;1.20;98.20;;;;;;5000251;28;20461;-77
2021/01/24 07:07:43;;;;;;;1.70;1.53;;;1.20;98.20;;;;;;4998475;28;20586;-77
2021/01/24 07:10:31;;;;;;;1.67;1.50;;;1.20;98.20;;;;;;5005493;28;21025;-76
2021/01/24 07:12:58;;;;;;;1.70;1.60;;;1.30;98.20;;;;;;5001357;28;20469;-77
2021/01/24 07:15:25;;;;;;;1.60;1.50;;;1.30;98.20;;;;;;5007721;28;20510;-77
2021/01/24 07:18:02;;;;;;;1.63;1.50;;;1.30;98.20;;;;;;5008746;28;20543;-77
2021/01/24 07:20:28;;;;;;;1.70;1.50;;;1.30;98.20;;;;;;5007305;28;20483;-78
2021/01/24 07:22:55;;;;;;;1.83;1.73;;;1.30;98.20;;;;;;5004197;28;20456;-78
2021/01/24 07:25:25;;;;;;;1.63;1.43;;;1.30;98.20;;;;;;5013544;28;20492;-78
2021/01/24 07:27:53;;;;;;;1.60;1.43;;;1.30;98.20;;;;;;5010721;28;20476;-78
2021/01/24 07:30:25;;;;;;;1.63;1.50;;;1.30;98.20;;;;;;5003712;28;20489;-77
2021/01/24 07:32:52;;;;;;;1.87;1.77;;;1.30;98.20;;;;;;5007029;28;20896;-78
2021/01/24 07:35:20;;;;;;;1.67;1.50;;;1.30;98.20;;;;;;5011006;28;20464;-77
2021/01/24 07:37:49;;;;;;;1.63;1.50;;;1.30;98.20;;;;;;5002326;28;20939;-75
2021/01/24 07:40:19;;;;;;;1.60;1.33;;;1.40;98.20;;;;;;5005622;28;20510;-76
2021/01/24 07:42:52;;;;;;;1.70;1.50;;;1.40;98.20;;;;;;4996122;28;20496;-76
2021/01/24 07:45:19;;;;;;;1.63;1.50;;;1.40;98.20;;;;;;5006973;28;20468;-76
2021/01/24 07:47:47;;;;;;;1.70;1.50;;;1.40;98.20;;;;;;5005382;28;20522;-76
2021/01/24 07:50:19;;;;;;;1.70;1.60;;;1.40;98.20;;;;;;5004689;28;20527;-76
2021/01/24 07:56:55;;;;;;;;;;;;;;;;;;;;;
2021/01/24 08:02:28;;;;;;;1.70;1.50;;;1.40;98.20;;;;;;5152693;23;21012;-77
2021/01/24 08:08:15;;;;;;;1.70;1.60;;;1.40;98.20;;;;;;4948962;28;20525;-77
2021/01/24 08:11:21;;;;;;;1.70;1.60;;;1.50;98.20;;;;;;4972870;28;20496;-75
2021/01/24 08:14:09;;;;;;;1.70;1.50;;;1.50;98.20;;;;;;4972886;28;20528;-76
2021/01/24 08:23:30;;;;;;;1.80;1.70;;;1.50;98.20;;;;;;4962656;28;20494;-76
2021/01/24 08:30:14;;;;;;;1.80;1.70;;;1.60;98.20;;;;;;4965489;28;20450;-75
2021/01/24 08:33:11;;;;;;;1.70;1.57;;;1.60;98.20;;;;;;4956743;28;20517;-76
2021/01/24 08:39:01;;;;;;;1.70;1.50;;;1.60;98.20;;;;;;4968863;28;20541;-77
2021/01/24 08:41:35;;;;;;;1.70;1.60;;;1.60;98.20;;;;;;4984519;28;20488;-77
2021/01/24 08:44:03;;;;;;;1.70;1.60;;;1.60;98.20;;;;;;4988943;28;20457;-76
2021/01/24 08:46:35;;;;;;;1.60;1.40;;;1.70;98.20;;;;;;4989941;28;20472;-77
2021/01/24 08:49:08;;;;;;;1.70;1.50;;;1.70;98.20;;;;;;4988503;28;20490;-77
2021/01/24 08:51:52;;;;;;;1.70;1.60;;;1.70;98.20;;;;;;4984015;28;20478;-75
2021/01/24 08:54:29;;;;;;;1.70;1.60;;;1.70;98.20;;;;;;4979802;28;20933;-75
2021/01/24 08:57:10;;;;;;;1.80;1.70;;;1.70;98.20;;;;;;4982754;28;20531;-77
2021/01/24 08:59:45;;;;;;;1.70;1.53;;;1.70;98.20;;;;;;4986216;28;20457;-76
2021/01/24 09:02:17;;;;;;;1.70;1.60;;;1.70;98.20;;;;;;4988093;28;20487;-76
2021/01/24 09:04:46;;;;;;;1.63;1.50;;;1.70;98.20;;;;;;4990160;28;20469;-76
2021/01/24 09:07:19;;;;;;;1.70;1.50;;;1.80;98.20;;;;;;4987248;28;21026;-76
2021/01/24 09:09:47;;;;;;;1.70;1.50;;;1.70;98.20;;;;;;4982535;28;20517;-75
2021/01/24 09:12:16;;;;;;;1.97;1.87;;;1.80;98.20;;;;;;4972856;28;20473;-76
2021/01/24 09:14:43;;;;;;;1.60;1.50;;;1.80;98.20;;;;;;4987255;28;20473;-76
2021/01/24 09:17:12;;;;;;;1.70;1.50;;;1.80;98.20;;;;;;4985057;28;20948;-76
2021/01/24 09:19:41;;;;;;;1.70;1.53;;;1.80;98.20;;;;;;4989914;28;20465;-76
2021/01/24 09:22:10;;;;;;;1.70;1.57;;;1.80;98.20;;;;;;4983925;28;20556;-76
2021/01/24 09:24:40;;;;;;;1.70;1.60;;;1.80;98.20;;;;;;4980564;28;20957;-76
2021/01/24 09:27:11;;;;;;;1.60;1.40;;;1.80;98.20;;;;;;4982469;28;20569;-76
2021/01/24 09:29:39;;;;;;;1.63;1.40;;;1.80;98.20;;;;;;4984005;28;20561;-76
2021/01/24 09:32:07;;;;;;;1.80;1.70;;;1.80;98.20;;;;;;4985060;28;20508;-76
2021/01/24 09:34:34;;;;;;;1.70;1.57;;;1.80;98.20;;;;;;4986203;28;20543;-76
2021/01/24 09:37:03;;;;;;;1.70;1.60;;;1.80;98.20;;;;;;4985773;28;20804;-76
2021/01/24 09:39:29;;;;;;;1.63;1.50;;;1.80;98.20;;;;;;4971442;28;20473;-76
2021/01/24 09:41:59;;;;;;;1.73;1.63;;;1.80;98.20;;;;;;4978190;28;20559;-76
2021/01/24 09:44:26;;;;;;;1.70;1.50;;;1.80;98.20;;;;;;4982729;28;20464;-76
2021/01/24 09:46:53;;;;;;;1.60;1.50;;;1.80;98.20;;;;;;4984605;28;20567;-76
2021/01/24 09:49:19;;;;;;;1.70;1.50;;;1.80;98.20;;;;;;4989327;28;20475;-76
2021/01/24 09:51:54;;;;;;;1.63;1.40;;;1.90;98.20;;;;;;4995590;28;20564;-75
2021/01/24 09:54:26;;;;;;;1.63;1.40;;;1.90;98.20;;;;;;4994433;28;20498;-76
2021/01/24 09:56:55;;;;;;;1.70;1.60;;;1.90;98.20;;;;;;4993788;28;20519;-76
2021/01/24 09:59:21;;;;;;;1.60;1.40;;;1.90;98.20;;;;;;4991687;28;20499;-75
2021/01/24 10:01:49;;;;;;;1.63;1.50;;;1.90;98.20;;;;;;4986438;28;20854;-75
2021/01/24 10:04:18;;;;;;;1.80;1.70;;;1.90;98.20;;;;;;4983012;28;20460;-75
2021/01/24 10:06:47;;;;;;;1.63;1.50;;;1.90;98.20;;;;;;4983104;28;20472;-75
2021/01/24 10:09:15;;;;;;;1.70;1.60;;;2.00;98.20;;;;;;4981245;28;20474;-75
2021/01/24 10:11:47;;;;;;;1.67;1.50;;;1.90;98.20;;;;;;4979846;28;20860;-75
2021/01/24 10:14:14;;;;;;;1.60;1.43;;;2.00;98.20;;;;;;4984533;28;20552;-76
2021/01/24 10:16:40;;;;;;;1.70;1.50;;;2.00;98.20;;;;;;4985699;28;20578;-76
2021/01/24 10:19:08;;;;;;;1.63;1.50;;;2.00;98.20;;;;;;4983579;28;20530;-75
2021/01/24 10:21:34;;;;;;;1.67;1.40;;;2.00;98.20;;;;;;4978348;28;20576;-75
2021/01/24 10:24:01;;;;;;;2.07;1.90;;;2.00;98.20;;;;;;4977753;28;20473;-75
2021/01/24 10:26:44;;;;;;;1.73;1.63;;;2.00;98.20;;;;;;4982888;28;20495;-75
2021/01/24 10:29:19;;;;;;;1.70;1.60;;;2.00;98.20;;;;;;4993237;28;20905;-75
2021/01/24 10:31:46;;;;;;;1.70;1.50;;;2.10;98.20;;;;;;4987352;28;20493;-75
2021/01/24 10:34:27;;;;;;;1.63;1.50;;;2.10;98.20;;;;;;4982532;28;20485;-75
2021/01/24 10:36:58;;;;;;;1.67;1.50;;;2.10;98.20;;;;;;4992492;28;20474;-74
2021/01/24 10:39:31;;;;;;;1.83;1.73;;;2.10;98.20;;;;;;4976206;28;20477;-74
2021/01/24 10:42:04;;;;;;;1.70;1.50;;;2.20;98.20;;;;;;4982037;28;20492;-74
2021/01/24 10:44:35;;;;;;;1.70;1.50;;;2.20;98.20;;;;;;4976158;28;20465;-75
2021/01/24 10:47:04;;;;;;;1.70;1.50;;;2.20;98.20;;;;;;4977669;28;20489;-74
2021/01/24 10:49:32;;;;;;;1.70;1.50;;;2.20;98.20;;;;;;4979926;28;20529;-74
2021/01/24 10:52:01;;;;;;;1.70;1.50;;;2.20;98.20;;;;;;4979193;28;20493;-77
2021/01/24 10:54:43;;;;;;;1.60;1.40;;;2.20;98.20;;;;;;4981493;28;20462;-77
2021/01/24 10:57:09;;;;;;;1.70;1.60;;;2.20;98.20;;;;;;4980162;28;20864;-77
2021/01/24 10:59:37;;;;;;;1.70;1.60;;;2.20;98.20;;;;;;4982551;28;20468;-78
2021/01/24 11:02:04;;;;;;;1.70;1.50;;;2.20;98.20;;;;;;4977579;28;20873;-77
2021/01/24 11:04:35;;;;;;;1.70;1.40;;;2.20;98.20;;;;;;4974509;28;20473;-77
2021/01/24 11:07:01;;;;;;;1.70;1.50;;;2.20;98.20;;;;;;4987395;28;20504;-77
2021/01/24 11:09:28;;;;;;;1.90;1.80;;;2.30;98.20;;;;;;4981917;28;21024;-77
2021/01/24 11:11:55;;;;;;;1.70;1.50;;;2.30;98.20;;;;;;4966621;28;20985;-78
2021/01/24 11:14:22;;;;;;;3.70;3.43;;;2.30;98.20;;;;;;4976930;28;20991;-77
2021/01/24 11:16:48;;;;;;;1.67;1.40;;;2.40;98.20;;;;;;4978184;28;20498;-77
2021/01/24 11:19:25;;;;;;;1.60;1.50;;;2.40;98.20;;;;;;4979188;28;20553;-77
2021/01/24 11:21:53;;;;;;;1.70;1.60;;;2.40;98.20;;;;;;4971590;28;20500;-77
2021/01/24 11:24:37;;;;;;;1.63;1.50;;;2.40;98.20;;;;;;4980066;28;20592;-77
2021/01/24 11:27:07;;;;;;;1.70;1.50;;;2.40;98.20;;;;;;4978527;28;20535;-78
2021/01/24 11:29:43;;;;;;;1.70;1.40;;;2.40;98.20;;;;;;4977197;28;20538;-77
2021/01/24 11:32:11;;;;;;;1.70;1.60;;;2.40;98.20;;;;;;4979408;28;20468;-77
2021/01/24 11:34:41;;;;;;;1.60;1.40;;;2.40;98.20;;;;;;4974519;28;20469;-78
2021/01/24 11:37:12;;;;;;;1.70;1.57;;;2.40;98.20;;;;;;4976950;28;20553;-78
2021/01/24 11:39:44;;;;;;;1.70;1.60;;;2.40;98.20;;;;;;4978047;28;20961;-78
2021/01/24 11:42:11;;;;;;;1.70;1.60;;;2.40;98.20;;;;;;4975153;28;21011;-78
2021/01/24 11:44:43;;;;;;;1.70;1.50;;;2.40;98.20;;;;;;4991710;28;20465;-78
2021/01/24 11:47:10;;;;;;;1.70;1.50;;;2.40;98.20;;;;;;4991724;28;21022;-78
2021/01/24 11:49:39;;;;;;;1.70;1.50;;;2.40;98.20;;;;;;4990760;28;20548;-75
2021/01/24 11:52:09;;;;;;;1.77;1.67;;;2.40;98.20;;;;;;4991198;28;20577;-78
2021/01/24 11:54:37;;;;;;;1.60;1.40;;;2.50;98.20;;;;;;4987701;28;20879;-75
2021/01/24 11:57:08;;;;;;;1.67;1.47;;;2.50;98.20;;;;;;4990743;28;20569;-78
2021/01/24 11:59:37;;;;;;;1.63;1.40;;;2.50;98.20;;;;;;4989891;28;20470;-77
2021/01/24 12:02:03;;;;;;;1.70;1.50;;;2.60;98.20;;;;;;4989476;28;20773;-78
2021/01/24 12:04:30;;;;;;;1.70;1.53;;;2.60;98.20;;;;;;4975923;28;20476;-76
2021/01/24 12:06:56;;;;;;;1.70;1.60;;;2.60;98.20;;;;;;4975301;28;20461;-77
2021/01/24 12:09:25;;;;;;;1.73;1.63;;;2.70;98.20;;;;;;4977542;28;20548;-78
2021/01/24 12:11:53;;;;;;;1.73;1.63;;;2.70;98.20;;;;;;4978270;28;20523;-74
2021/01/24 12:14:19;;;;;;;1.60;1.40;;;2.80;98.20;;;;;;4968784;28;20466;-77
2021/01/24 12:16:52;;;;;;;1.80;1.70;;;2.80;98.20;;;;;;4977557;28;20473;-77
2021/01/24 12:19:21;;;;;;;1.70;1.50;;;2.90;98.20;;;;;;4978590;28;20882;-75
2021/01/24 12:21:50;;;;;;;1.70;1.50;;;2.90;98.20;;;;;;4971949;28;20525;-78
2021/01/24 12:24:17;;;;;;;1.70;1.40;;;3.00;98.20;;;;;;4968484;28;20480;-74
2021/01/24 12:30:16;;;;;;;1.60;1.40;;;3.00;98.20;;;;;;4975206;28;20731;-75
2021/01/24 12:32:45;;;;;;;1.70;1.50;;;3.10;98.20;;;;;;4975890;28;20968;-74
2021/01/24 12:35:25;;;;;;;1.70;1.60;;;3.10;98.20;;;;;;4975119;28;20472;-75
2021/01/24 12:37:53;;;;;;;1.60;1.40;;;3.10;98.20;;;;;;4973807;28;20472;-74
2021/01/24 12:40:22;;;;;;;1.67;1.43;;;3.10;98.20;;;;;;4977799;28;20595;-75
2021/01/24 12:42:48;;;;;;;1.70;1.60;;;3.10;98.20;;;;;;4974166;28;20529;-75
2021/01/24 12:45:16;;;;;;;1.67;1.47;;;3.10;98.20;;;;;;4972747;28;21022;-74
2021/01/24 12:47:42;;;;;;;1.80;1.70;;;3.10;98.20;;;;;;4976416;28;21226;-74
2021/01/24 12:50:14;;;;;;;1.70;1.43;;;3.10;98.20;;;;;;4978692;28;20485;-74
2021/01/24 12:52:41;;;;;;;1.60;1.40;;;3.10;98.20;;;;;;4974954;28;20481;-73
2021/01/24 12:55:09;;;;;;;1.67;1.40;;;3.10;98.20;;;;;;4976770;28;20497;-74
2021/01/24 12:57:35;;;;;;;1.67;1.43;;;3.20;98.20;;;;;;4975274;28;21295;-74
2021/01/24 13:00:05;;;;;;;1.70;1.40;;;3.30;98.20;;;;;;4983247;28;20586;-74
2021/01/24 13:02:32;;;;;;;1.60;1.40;;;3.50;98.20;;;;;;4974712;28;20991;-74
2021/01/24 13:04:59;;;;;;;1.67;1.50;;;3.60;98.20;;;;;;4977345;28;20487;-75
2021/01/24 13:07:25;;;;;;;1.70;1.40;;;3.80;98.20;;;;;;4967503;28;21002;-75
2021/01/24 13:09:52;;;;;;;1.70;1.57;;;3.90;98.20;;;;;;4970328;28;20992;-73
2021/01/24 13:12:21;;;;;;;1.70;1.57;;;4.00;98.20;;;;;;4973299;28;20625;-75
2021/01/24 13:14:49;;;;;;;1.67;1.43;;;4.00;98.20;;;;;;4973754;28;20500;-74
2021/01/24 13:17:28;;;;;;;1.70;1.50;;;4.00;98.20;;;;;;4973896;28;20671;-73
2021/01/24 13:20:16;;;;;;;1.70;1.50;;;3.90;98.20;;;;;;4970067;28;20923;-72
2021/01/24 13:22:48;;;;;;;1.70;1.40;;;3.80;98.20;;;;;;4956124;28;20535;-73
2021/01/24 13:25:23;;;;;;;1.63;1.40;;;3.70;98.20;;;;;;4964877;28;20505;-74
2021/01/24 13:27:54;;;;;;;1.60;1.40;;;3.70;98.20;;;;;;4977892;28;20484;-74
2021/01/24 13:30:22;;;;;;;1.60;1.30;;;3.70;98.20;;;;;;4976280;28;20575;-75
2021/01/24 13:32:52;;;;;;;1.67;1.40;;;3.70;98.20;;;;;;4976533;28;20908;-75
2021/01/24 13:35:21;;;;;;;1.67;1.40;;;3.80;98.20;;;;;;4969583;28;20550;-72
2021/01/24 13:37:58;;;;;;;1.60;1.30;;;3.80;98.20;;;;;;4970813;28;20469;-72